sensor_id;sensor_type;location;lat;lon;timestamp;pressure;altitude;pressure_sealevel;temperature;humidity
71151;BME280;59071;42.138;24.768;2023-05-16T00:00:48;99515.78;;;17.90;74.17
71151;BME280;59071;42.138;24.768;2023-05-16T00:03:17;99514.44;;;17.92;74.07
71151;BME280;59071;42.138;24.768;2023-05-16T00:05:43;99509.66;;;18.05;73.80
71151;BME280;59071;42.138;24.768;2023-05-16T00:08:08;99507.22;;;17.98;73.71
71151;BME280;59071;42.138;24.768;2023-05-16T00:10:33;99510.94;;;17.97;73.82
71151;BME280;59071;42.138;24.768;2023-05-16T00:12:59;99513.19;;;18.05;73.36
71151;BME280;59071;42.138;24.768;2023-05-16T00:15:25;99510.44;;;18.00;73.32
71151;BME280;59071;42.138;24.768;2023-05-16T00:17:51;99503.44;;;17.99;73.20
71151;BME280;59071;42.138;24.768;2023-05-16T00:20:16;99501.88;;;18.03;73.30
71151;BME280;59071;42.138;24.768;2023-05-16T00:22:47;99508.91;;;18.09;73.04
71151;BME280;59071;42.138;24.768;2023-05-16T00:25:12;99502.13;;;18.02;73.39
71151;BME280;59071;42.138;24.768;2023-05-16T00:27:37;99498.63;;;18.01;73.04
71151;BME280;59071;42.138;24.768;2023-05-16T00:30:03;99506.09;;;17.94;73.47
71151;BME280;59071;42.138;24.768;2023-05-16T00:32:28;99501.78;;;17.93;73.81
71151;BME280;59071;42.138;24.768;2023-05-16T00:34:54;99500.38;;;17.85;73.84
71151;BME280;59071;42.138;24.768;2023-05-16T00:37:19;99502.03;;;17.91;73.73
71151;BME280;59071;42.138;24.768;2023-05-16T00:39:44;99505.31;;;17.93;73.53
71151;BME280;59071;42.138;24.768;2023-05-16T00:42:09;99493.41;;;17.89;73.82
71151;BME280;59071;42.138;24.768;2023-05-16T00:44:35;99489.25;;;17.76;74.55
71151;BME280;59071;42.138;24.768;2023-05-16T00:47:00;99492.91;;;17.92;73.87
71151;BME280;59071;42.138;24.768;2023-05-16T00:49:26;99492.13;;;17.97;73.91
71151;BME280;59071;42.138;24.768;2023-05-16T00:51:52;99498.91;;;18.05;73.54
71151;BME280;59071;42.138;24.768;2023-05-16T00:54:18;99487.56;;;17.97;73.01
71151;BME280;59071;42.138;24.768;2023-05-16T00:56:46;99480.25;;;17.93;73.59
71151;BME280;59071;42.138;24.768;2023-05-16T00:59:12;99483.03;;;17.76;74.06
71151;BME280;59071;42.138;24.768;2023-05-16T01:01:37;99488.72;;;17.79;74.07
71151;BME280;59071;42.138;24.768;2023-05-16T01:04:03;99479.28;;;17.77;74.42
71151;BME280;59071;42.138;24.768;2023-05-16T01:06:28;99481.06;;;17.93;73.72
71151;BME280;59071;42.138;24.768;2023-05-16T01:08:53;99478.84;;;17.85;73.75
71151;BME280;59071;42.138;24.768;2023-05-16T01:14:04;99482.06;;;17.55;75.27
71151;BME280;59071;42.138;24.768;2023-05-16T01:16:54;99490.25;;;17.65;74.97
71151;BME280;59071;42.138;24.768;2023-05-16T01:19:30;99468.72;;;17.38;75.58
71151;BME280;59071;42.138;24.768;2023-05-16T01:27:16;99471.53;;;17.21;76.95
71151;BME280;59071;42.138;24.768;2023-05-16T01:29:41;99460.81;;;17.26;76.38
71151;BME280;59071;42.138;24.768;2023-05-16T01:32:07;99465.16;;;17.32;76.39
71151;BME280;59071;42.138;24.768;2023-05-16T01:34:32;99463.91;;;17.40;76.03
71151;BME280;59071;42.138;24.768;2023-05-16T01:39:29;99453.75;;;17.47;75.81
71151;BME280;59071;42.138;24.768;2023-05-16T01:42:04;99457.22;;;17.43;75.95
71151;BME280;59071;42.138;24.768;2023-05-16T01:47:16;99447.50;;;17.42;75.62
71151;BME280;59071;42.138;24.768;2023-05-16T01:50:16;99458.53;;;17.40;75.77
71151;BME280;59071;42.138;24.768;2023-05-16T01:52:39;99452.00;;;17.31;75.87
71151;BME280;59071;42.138;24.768;2023-05-16T01:55:09;99445.47;;;17.22;76.46
71151;BME280;59071;42.138;24.768;2023-05-16T01:57:36;99444.94;;;17.25;76.30
71151;BME280;59071;42.138;24.768;2023-05-16T02:00:02;99436.63;;;17.26;76.24
71151;BME280;59071;42.138;24.768;2023-05-16T02:02:27;99427.94;;;17.19;76.46
71151;BME280;59071;42.138;24.768;2023-05-16T02:04:52;99421.63;;;17.03;77.17
71151;BME280;59071;42.138;24.768;2023-05-16T02:07:18;99422.31;;;16.93;77.36
71151;BME280;59071;42.138;24.768;2023-05-16T02:09:43;99414.25;;;17.20;76.70
71151;BME280;59071;42.138;24.768;2023-05-16T02:12:08;99414.00;;;17.22;76.75
71151;BME280;59071;42.138;24.768;2023-05-16T02:14:34;99414.81;;;17.23;76.36
71151;BME280;59071;42.138;24.768;2023-05-16T02:16:59;99417.47;;;17.17;76.86
71151;BME280;59071;42.138;24.768;2023-05-16T02:19:24;99420.72;;;17.19;77.19
71151;BME280;59071;42.138;24.768;2023-05-16T02:21:50;99418.44;;;17.38;76.06
71151;BME280;59071;42.138;24.768;2023-05-16T02:24:15;99421.28;;;17.54;75.47
71151;BME280;59071;42.138;24.768;2023-05-16T02:26:40;99423.72;;;17.55;74.97
71151;BME280;59071;42.138;24.768;2023-05-16T02:29:06;99415.84;;;17.49;74.88
71151;BME280;59071;42.138;24.768;2023-05-16T02:31:31;99417.00;;;17.26;76.06
71151;BME280;59071;42.138;24.768;2023-05-16T02:33:58;99411.31;;;17.22;76.55
71151;BME280;59071;42.138;24.768;2023-05-16T02:36:23;99413.09;;;17.11;76.78
71151;BME280;59071;42.138;24.768;2023-05-16T02:38:49;99412.13;;;17.23;75.51
71151;BME280;59071;42.138;24.768;2023-05-16T02:41:14;99402.78;;;17.30;75.58
71151;BME280;59071;42.138;24.768;2023-05-16T02:43:40;99399.28;;;17.30;75.87
71151;BME280;59071;42.138;24.768;2023-05-16T02:46:18;99399.63;;;17.38;74.98
71151;BME280;59071;42.138;24.768;2023-05-16T02:48:43;99397.00;;;17.49;74.65
71151;BME280;59071;42.138;24.768;2023-05-16T02:51:09;99394.88;;;17.51;74.08
71151;BME280;59071;42.138;24.768;2023-05-16T02:53:34;99389.50;;;17.51;73.79
71151;BME280;59071;42.138;24.768;2023-05-16T02:55:59;99394.16;;;17.28;74.91
71151;BME280;59071;42.138;24.768;2023-05-16T02:58:25;99394.16;;;17.28;75.82
71151;BME280;59071;42.138;24.768;2023-05-16T03:00:50;99409.84;;;17.36;75.34
71151;BME280;59071;42.138;24.768;2023-05-16T03:03:16;99407.84;;;17.27;75.37
71151;BME280;59071;42.138;24.768;2023-05-16T03:05:42;99413.81;;;17.34;75.25
71151;BME280;59071;42.138;24.768;2023-05-16T03:08:07;99428.97;;;17.45;75.09
71151;BME280;59071;42.138;24.768;2023-05-16T03:10:32;99427.81;;;17.36;75.08
71151;BME280;59071;42.138;24.768;2023-05-16T03:12:57;99421.16;;;17.44;74.95
71151;BME280;59071;42.138;24.768;2023-05-16T03:15:23;99424.22;;;17.52;74.53
71151;BME280;59071;42.138;24.768;2023-05-16T03:17:48;99425.31;;;17.56;74.27
71151;BME280;59071;42.138;24.768;2023-05-16T03:20:13;99413.09;;;17.44;74.19
71151;BME280;59071;42.138;24.768;2023-05-16T03:22:39;99436.56;;;17.48;73.96
71151;BME280;59071;42.138;24.768;2023-05-16T03:25:05;99427.81;;;17.31;75.22
71151;BME280;59071;42.138;24.768;2023-05-16T03:27:30;99426.88;;;17.20;75.20
71151;BME280;59071;42.138;24.768;2023-05-16T03:29:55;99441.38;;;16.92;77.15
71151;BME280;59071;42.138;24.768;2023-05-16T03:32:21;99446.34;;;17.05;76.41
71151;BME280;59071;42.138;24.768;2023-05-16T03:34:46;99425.97;;;17.09;75.88
71151;BME280;59071;42.138;24.768;2023-05-16T03:37:11;99416.28;;;17.08;76.89
71151;BME280;59071;42.138;24.768;2023-05-16T03:39:39;99428.25;;;17.23;76.14
71151;BME280;59071;42.138;24.768;2023-05-16T03:42:04;99431.53;;;17.30;75.60
71151;BME280;59071;42.138;24.768;2023-05-16T03:44:29;99433.75;;;17.38;75.52
71151;BME280;59071;42.138;24.768;2023-05-16T03:46:55;99433.34;;;17.51;75.06
71151;BME280;59071;42.138;24.768;2023-05-16T03:49:23;99442.78;;;17.54;74.75
71151;BME280;59071;42.138;24.768;2023-05-16T03:51:49;99433.13;;;17.58;75.65
71151;BME280;59071;42.138;24.768;2023-05-16T03:54:14;99443.59;;;17.54;76.33
71151;BME280;59071;42.138;24.768;2023-05-16T03:56:39;99437.53;;;17.37;76.95
71151;BME280;59071;42.138;24.768;2023-05-16T03:59:05;99431.53;;;17.62;75.77
71151;BME280;59071;42.138;24.768;2023-05-16T04:01:30;99440.59;;;17.51;75.28
71151;BME280;59071;42.138;24.768;2023-05-16T04:03:55;99440.91;;;17.54;75.28
71151;BME280;59071;42.138;24.768;2023-05-16T04:06:20;99433.31;;;17.46;75.83
71151;BME280;59071;42.138;24.768;2023-05-16T04:08:46;99425.88;;;17.58;75.50
71151;BME280;59071;42.138;24.768;2023-05-16T04:11:11;99425.09;;;17.63;74.78
71151;BME280;59071;42.138;24.768;2023-05-16T04:13:36;99421.72;;;17.46;75.20
71151;BME280;59071;42.138;24.768;2023-05-16T04:16:01;99423.66;;;17.50;75.46
71151;BME280;59071;42.138;24.768;2023-05-16T04:18:27;99422.50;;;17.41;75.73
71151;BME280;59071;42.138;24.768;2023-05-16T04:20:52;99421.44;;;17.42;76.05
71151;BME280;59071;42.138;24.768;2023-05-16T04:23:17;99421.72;;;17.46;75.96
71151;BME280;59071;42.138;24.768;2023-05-16T04:25:43;99423.81;;;17.71;75.62
71151;BME280;59071;42.138;24.768;2023-05-16T04:28:08;99406.00;;;17.65;74.78
71151;BME280;59071;42.138;24.768;2023-05-16T04:30:33;99423.31;;;17.42;75.79
71151;BME280;59071;42.138;24.768;2023-05-16T04:32:58;99416.94;;;17.53;75.22
71151;BME280;59071;42.138;24.768;2023-05-16T04:35:25;99419.13;;;17.56;75.52
71151;BME280;59071;42.138;24.768;2023-05-16T04:37:50;99426.81;;;17.79;74.50
71151;BME280;59071;42.138;24.768;2023-05-16T04:40:15;99431.34;;;18.06;72.84
71151;BME280;59071;42.138;24.768;2023-05-16T04:42:41;99432.13;;;18.02;73.75
71151;BME280;59071;42.138;24.768;2023-05-16T04:45:07;99439.50;;;18.22;71.47
71151;BME280;59071;42.138;24.768;2023-05-16T04:47:35;99443.09;;;18.38;70.54
71151;BME280;59071;42.138;24.768;2023-05-16T04:50:01;99446.56;;;18.33;69.94
71151;BME280;59071;42.138;24.768;2023-05-16T04:52:26;99436.97;;;18.05;71.09
71151;BME280;59071;42.138;24.768;2023-05-16T04:54:51;99429.84;;;18.31;82.74
71151;BME280;59071;42.138;24.768;2023-05-16T04:57:16;99435.97;;;18.74;70.41
71151;BME280;59071;42.138;24.768;2023-05-16T04:59:42;99440.63;;;18.89;68.34
71151;BME280;59071;42.138;24.768;2023-05-16T05:02:08;99438.88;;;18.57;68.06
71151;BME280;59071;42.138;24.768;2023-05-16T05:04:33;99437.94;;;18.31;68.82
71151;BME280;59071;42.138;24.768;2023-05-16T05:06:59;99438.19;;;18.24;67.96
71151;BME280;59071;42.138;24.768;2023-05-16T05:09:24;99451.53;;;18.56;67.47
71151;BME280;59071;42.138;24.768;2023-05-16T05:11:50;99444.41;;;18.98;66.95
71151;BME280;59071;42.138;24.768;2023-05-16T05:14:15;99444.72;;;19.22;64.38
71151;BME280;59071;42.138;24.768;2023-05-16T05:16:40;99440.69;;;19.35;64.90
71151;BME280;59071;42.138;24.768;2023-05-16T05:19:05;99443.13;;;19.42;63.91
71151;BME280;59071;42.138;24.768;2023-05-16T05:21:32;99447.16;;;19.34;62.60
71151;BME280;59071;42.138;24.768;2023-05-16T05:23:58;99439.59;;;19.36;63.14
71151;BME280;59071;42.138;24.768;2023-05-16T05:26:23;99426.66;;;19.59;62.81
71151;BME280;59071;42.138;24.768;2023-05-16T05:28:50;99429.91;;;19.30;62.75
71151;BME280;59071;42.138;24.768;2023-05-16T05:31:17;99444.22;;;19.46;63.11
71151;BME280;59071;42.138;24.768;2023-05-16T05:33:42;99444.50;;;19.44;63.22
71151;BME280;59071;42.138;24.768;2023-05-16T05:36:08;99442.06;;;19.58;62.89
71151;BME280;59071;42.138;24.768;2023-05-16T05:38:33;99429.91;;;19.50;62.43
71151;BME280;59071;42.138;24.768;2023-05-16T05:40:59;99433.38;;;19.30;62.87
71151;BME280;59071;42.138;24.768;2023-05-16T05:43:24;99423.16;;;19.22;62.85
71151;BME280;59071;42.138;24.768;2023-05-16T05:45:50;99423.69;;;19.24;62.86
71151;BME280;59071;42.138;24.768;2023-05-16T05:48:15;99409.69;;;19.43;62.51
71151;BME280;59071;42.138;24.768;2023-05-16T05:50:40;99410.75;;;19.21;63.34
71151;BME280;59071;42.138;24.768;2023-05-16T05:53:06;99412.63;;;19.26;64.39
71151;BME280;59071;42.138;24.768;2023-05-16T05:55:31;99429.34;;;19.28;64.41
71151;BME280;59071;42.138;24.768;2023-05-16T05:57:57;99427.22;;;19.50;62.78
71151;BME280;59071;42.138;24.768;2023-05-16T06:00:22;99426.13;;;19.62;62.43
71151;BME280;59071;42.138;24.768;2023-05-16T06:02:47;99421.00;;;19.50;62.35
71151;BME280;59071;42.138;24.768;2023-05-16T06:05:12;99418.56;;;19.59;62.35
71151;BME280;59071;42.138;24.768;2023-05-16T06:07:38;99414.75;;;18.93;63.77
71151;BME280;59071;42.138;24.768;2023-05-16T06:10:03;99411.72;;;18.16;67.39
71151;BME280;59071;42.138;24.768;2023-05-16T06:12:29;99422.31;;;18.28;67.31
71151;BME280;59071;42.138;24.768;2023-05-16T06:14:55;99434.28;;;18.58;66.65
71151;BME280;59071;42.138;24.768;2023-05-16T06:17:20;99429.84;;;18.94;64.99
71151;BME280;59071;42.138;24.768;2023-05-16T06:19:46;99415.72;;;18.71;65.44
71151;BME280;59071;42.138;24.768;2023-05-16T06:22:11;99448.16;;;18.87;64.92
71151;BME280;59071;42.138;24.768;2023-05-16T06:24:36;99455.19;;;18.98;65.06
71151;BME280;59071;42.138;24.768;2023-05-16T06:27:02;99422.78;;;18.78;66.35
71151;BME280;59071;42.138;24.768;2023-05-16T06:29:27;99415.03;;;18.97;65.68
71151;BME280;59071;42.138;24.768;2023-05-16T06:31:52;99421.28;;;18.39;66.40
71151;BME280;59071;42.138;24.768;2023-05-16T06:34:17;99423.88;;;18.24;67.11
71151;BME280;59071;42.138;24.768;2023-05-16T06:36:43;99452.53;;;18.40;66.58
71151;BME280;59071;42.138;24.768;2023-05-16T06:39:08;99440.25;;;18.65;65.66
71151;BME280;59071;42.138;24.768;2023-05-16T06:41:33;99403.81;;;18.52;66.30
71151;BME280;59071;42.138;24.768;2023-05-16T06:43:59;99396.28;;;18.49;66.55
71151;BME280;59071;42.138;24.768;2023-05-16T06:46:24;99404.84;;;18.41;66.51
71151;BME280;59071;42.138;24.768;2023-05-16T06:48:50;99421.34;;;18.60;66.43
71151;BME280;59071;42.138;24.768;2023-05-16T06:51:15;99416.50;;;18.62;66.18
71151;BME280;59071;42.138;24.768;2023-05-16T06:53:41;99400.72;;;18.96;65.51
71151;BME280;59071;42.138;24.768;2023-05-16T06:56:06;99403.16;;;19.03;64.66
71151;BME280;59071;42.138;24.768;2023-05-16T06:58:31;99400.75;;;19.22;64.45
71151;BME280;59071;42.138;24.768;2023-05-16T07:00:56;99398.56;;;18.93;64.77
71151;BME280;59071;42.138;24.768;2023-05-16T07:03:22;99401.78;;;18.85;65.57
71151;BME280;59071;42.138;24.768;2023-05-16T07:05:47;99407.75;;;19.02;65.27
71151;BME280;59071;42.138;24.768;2023-05-16T07:08:15;99410.97;;;19.09;64.18
71151;BME280;59071;42.138;24.768;2023-05-16T07:10:41;99394.31;;;19.38;63.35
71151;BME280;59071;42.138;24.768;2023-05-16T07:13:06;99399.94;;;19.57;62.89
71151;BME280;59071;42.138;24.768;2023-05-16T07:15:31;99389.72;;;19.54;62.86
71151;BME280;59071;42.138;24.768;2023-05-16T07:17:57;99395.63;;;19.82;62.33
71151;BME280;59071;42.138;24.768;2023-05-16T07:20:22;99392.13;;;19.71;61.81
71151;BME280;59071;42.138;24.768;2023-05-16T07:22:47;99376.44;;;19.68;63.21
71151;BME280;59071;42.138;24.768;2023-05-16T07:25:12;99377.50;;;19.98;62.10
71151;BME280;59071;42.138;24.768;2023-05-16T07:27:40;99382.28;;;20.26;60.78
71151;BME280;59071;42.138;24.768;2023-05-16T07:30:06;99372.69;;;19.79;62.56
71151;BME280;59071;42.138;24.768;2023-05-16T07:32:33;99363.69;;;20.15;61.83
71151;BME280;59071;42.138;24.768;2023-05-16T07:34:58;99364.28;;;20.01;63.36
71151;BME280;59071;42.138;24.768;2023-05-16T07:37:23;99371.59;;;20.56;61.93
71151;BME280;59071;42.138;24.768;2023-05-16T07:39:49;99374.47;;;20.80;60.27
71151;BME280;59071;42.138;24.768;2023-05-16T07:42:14;99373.94;;;20.83;59.60
71151;BME280;59071;42.138;24.768;2023-05-16T07:44:39;99365.66;;;21.03;59.15
71151;BME280;59071;42.138;24.768;2023-05-16T07:47:05;99371.47;;;20.26;60.78
71151;BME280;59071;42.138;24.768;2023-05-16T07:49:30;99369.16;;;20.54;59.85
71151;BME280;59071;42.138;24.768;2023-05-16T07:51:55;99361.25;;;20.18;61.02
71151;BME280;59071;42.138;24.768;2023-05-16T07:54:21;99368.25;;;20.14;61.90
71151;BME280;59071;42.138;24.768;2023-05-16T07:56:46;99359.94;;;20.70;61.02
71151;BME280;59071;42.138;24.768;2023-05-16T07:59:11;99360.94;;;21.19;59.01
71151;BME280;59071;42.138;24.768;2023-05-16T08:01:36;99347.53;;;21.38;56.97
71151;BME280;59071;42.138;24.768;2023-05-16T08:04:02;99354.50;;;21.50;57.11
71151;BME280;59071;42.138;24.768;2023-05-16T08:06:27;99339.47;;;21.62;57.31
71151;BME280;59071;42.138;24.768;2023-05-16T08:08:53;99341.16;;;20.89;59.29
71151;BME280;59071;42.138;24.768;2023-05-16T08:11:19;99344.72;;;20.80;60.80
71151;BME280;59071;42.138;24.768;2023-05-16T08:13:46;99348.19;;;20.91;60.51
71151;BME280;59071;42.138;24.768;2023-05-16T08:16:12;99344.00;;;21.03;59.80
71151;BME280;59071;42.138;24.768;2023-05-16T08:18:37;99346.41;;;21.39;59.34
71151;BME280;59071;42.138;24.768;2023-05-16T08:21:03;99359.41;;;21.42;58.47
71151;BME280;59071;42.138;24.768;2023-05-16T08:23:28;99340.41;;;21.13;58.91
71151;BME280;59071;42.138;24.768;2023-05-16T08:25:53;99341.69;;;21.21;59.13
71151;BME280;59071;42.138;24.768;2023-05-16T08:28:19;99335.00;;;20.79;60.73
71151;BME280;59071;42.138;24.768;2023-05-16T08:30:44;99341.88;;;21.00;59.86
71151;BME280;59071;42.138;24.768;2023-05-16T08:33:09;99341.53;;;21.46;57.93
71151;BME280;59071;42.138;24.768;2023-05-16T08:35:34;99345.75;;;21.58;57.51
71151;BME280;59071;42.138;24.768;2023-05-16T08:38:00;99341.69;;;20.86;60.31
71151;BME280;59071;42.138;24.768;2023-05-16T08:40:27;99335.97;;;20.98;59.94
71151;BME280;59071;42.138;24.768;2023-05-16T08:42:52;99314.69;;;20.37;61.81
71151;BME280;59071;42.138;24.768;2023-05-16T08:45:18;99319.16;;;20.07;62.96
71151;BME280;59071;42.138;24.768;2023-05-16T08:47:43;99338.59;;;20.04;63.99
71151;BME280;59071;42.138;24.768;2023-05-16T08:50:09;99325.16;;;19.94;64.46
71151;BME280;59071;42.138;24.768;2023-05-16T08:52:35;99324.34;;;19.83;65.24
71151;BME280;59071;42.138;24.768;2023-05-16T08:55:02;99317.31;;;19.97;63.99
71151;BME280;59071;42.138;24.768;2023-05-16T08:57:33;99307.56;;;20.51;62.80
71151;BME280;59071;42.138;24.768;2023-05-16T08:59:59;99319.09;;;20.72;61.83
71151;BME280;59071;42.138;24.768;2023-05-16T09:02:25;99325.94;;;21.28;60.37
71151;BME280;59071;42.138;24.768;2023-05-16T09:04:50;99318.94;;;21.27;59.40
71151;BME280;59071;42.138;24.768;2023-05-16T09:07:16;99309.34;;;21.11;59.40
71151;BME280;59071;42.138;24.768;2023-05-16T09:09:41;99314.47;;;20.78;60.93
71151;BME280;59071;42.138;24.768;2023-05-16T09:12:07;99316.81;;;21.53;59.66
71151;BME280;59071;42.138;24.768;2023-05-16T09:14:32;99319.88;;;21.46;59.50
71151;BME280;59071;42.138;24.768;2023-05-16T09:17:04;99320.16;;;20.71;62.12
71151;BME280;59071;42.138;24.768;2023-05-16T09:19:36;99317.94;;;21.18;60.64
71151;BME280;59071;42.138;24.768;2023-05-16T09:22:03;99312.34;;;21.92;58.85
71151;BME280;59071;42.138;24.768;2023-05-16T09:24:28;99316.38;;;20.77;61.80
71151;BME280;59071;42.138;24.768;2023-05-16T09:26:53;99316.28;;;20.87;62.15
71151;BME280;59071;42.138;24.768;2023-05-16T09:29:19;99312.31;;;21.09;62.53
71151;BME280;59071;42.138;24.768;2023-05-16T09:31:44;99280.09;;;20.83;62.23
71151;BME280;59071;42.138;24.768;2023-05-16T09:34:09;99287.69;;;21.11;61.96
71151;BME280;59071;42.138;24.768;2023-05-16T09:36:36;99290.19;;;21.36;61.23
71151;BME280;59071;42.138;24.768;2023-05-16T09:39:02;99312.16;;;21.59;59.70
71151;BME280;59071;42.138;24.768;2023-05-16T09:41:27;99295.72;;;21.21;61.37
71151;BME280;59071;42.138;24.768;2023-05-16T09:43:53;99279.38;;;21.60;60.34
71151;BME280;59071;42.138;24.768;2023-05-16T09:46:19;99305.06;;;22.11;59.89
71151;BME280;59071;42.138;24.768;2023-05-16T09:48:49;99296.84;;;22.59;58.22
71151;BME280;59071;42.138;24.768;2023-05-16T09:51:15;99267.63;;;22.89;56.67
71151;BME280;59071;42.138;24.768;2023-05-16T09:53:45;99266.22;;;22.59;57.38
71151;BME280;59071;42.138;24.768;2023-05-16T09:56:14;99250.22;;;22.57;57.47
71151;BME280;59071;42.138;24.768;2023-05-16T09:58:40;99260.81;;;22.92;56.67
71151;BME280;59071;42.138;24.768;2023-05-16T10:01:06;99274.84;;;22.80;56.64
71151;BME280;59071;42.138;24.768;2023-05-16T10:03:36;99273.09;;;22.51;56.75
71151;BME280;59071;42.138;24.768;2023-05-16T10:06:02;99282.00;;;22.90;55.72
71151;BME280;59071;42.138;24.768;2023-05-16T10:08:27;99295.13;;;23.34;54.75
71151;BME280;59071;42.138;24.768;2023-05-16T10:10:55;99312.75;;;22.66;55.21
71151;BME280;59071;42.138;24.768;2023-05-16T10:13:27;99306.53;;;22.28;57.13
71151;BME280;59071;42.138;24.768;2023-05-16T10:15:54;99313.31;;;22.25;56.93
71151;BME280;59071;42.138;24.768;2023-05-16T10:18:20;99288.31;;;21.85;57.74
71151;BME280;59071;42.138;24.768;2023-05-16T10:20:46;99274.63;;;22.38;56.81
71151;BME280;59071;42.138;24.768;2023-05-16T10:23:15;99259.44;;;21.75;58.28
71151;BME280;59071;42.138;24.768;2023-05-16T10:25:41;99257.00;;;21.98;58.21
71151;BME280;59071;42.138;24.768;2023-05-16T10:28:08;99255.66;;;21.76;58.37
71151;BME280;59071;42.138;24.768;2023-05-16T10:30:33;99241.56;;;21.26;59.88
71151;BME280;59071;42.138;24.768;2023-05-16T10:33:02;99242.75;;;21.68;59.74
71151;BME280;59071;42.138;24.768;2023-05-16T10:35:28;99254.31;;;22.17;57.71
71151;BME280;59071;42.138;24.768;2023-05-16T10:37:53;99245.16;;;22.13;57.77
71151;BME280;59071;42.138;24.768;2023-05-16T10:40:20;99241.59;;;22.36;57.38
71151;BME280;59071;42.138;24.768;2023-05-16T10:43:04;99227.66;;;22.95;56.74
71151;BME280;59071;42.138;24.768;2023-05-16T10:45:30;99219.00;;;23.12;55.54
71151;BME280;59071;42.138;24.768;2023-05-16T10:47:56;99212.66;;;23.30;55.06
71151;BME280;59071;42.138;24.768;2023-05-16T10:50:38;99206.31;;;23.62;53.91
71151;BME280;59071;42.138;24.768;2023-05-16T10:53:28;99206.28;;;24.18;53.47
71151;BME280;59071;42.138;24.768;2023-05-16T11:01:39;99222.53;;;24.32;51.59
71151;BME280;59071;42.138;24.768;2023-05-16T11:06:29;99187.13;;;25.00;50.93
71151;BME280;59071;42.138;24.768;2023-05-16T11:09:06;99183.34;;;24.33;53.47
71151;BME280;59071;42.138;24.768;2023-05-16T11:14:03;99193.59;;;25.04;50.95
71151;BME280;59071;42.138;24.768;2023-05-16T11:16:29;99193.13;;;25.50;51.10
71151;BME280;59071;42.138;24.768;2023-05-16T11:18:54;99199.63;;;25.23;48.77
71151;BME280;59071;42.138;24.768;2023-05-16T11:22:03;99201.78;;;24.81;49.74
71151;BME280;59071;42.138;24.768;2023-05-16T11:24:29;99198.03;;;25.00;50.15
71151;BME280;59071;42.138;24.768;2023-05-16T11:26:54;99187.09;;;25.22;49.87
71151;BME280;59071;42.138;24.768;2023-05-16T11:29:20;99183.06;;;25.60;49.09
71151;BME280;59071;42.138;24.768;2023-05-16T11:31:46;99189.53;;;25.90;48.45
71151;BME280;59071;42.138;24.768;2023-05-16T11:34:12;99201.28;;;26.08;48.06
71151;BME280;59071;42.138;24.768;2023-05-16T11:36:37;99208.50;;;26.04;48.85
71151;BME280;59071;42.138;24.768;2023-05-16T11:39:04;99205.44;;;25.08;51.85
71151;BME280;59071;42.138;24.768;2023-05-16T11:41:30;99198.44;;;24.84;50.84
71151;BME280;59071;42.138;24.768;2023-05-16T11:43:56;99192.66;;;24.77;50.78
71151;BME280;59071;42.138;24.768;2023-05-16T11:46:21;99199.09;;;24.90;50.70
71151;BME280;59071;42.138;24.768;2023-05-16T11:48:47;99195.47;;;24.94;51.74
71151;BME280;59071;42.138;24.768;2023-05-16T11:51:13;99188.03;;;25.66;50.66
71151;BME280;59071;42.138;24.768;2023-05-16T11:53:42;99189.56;;;25.99;49.72
71151;BME280;59071;42.138;24.768;2023-05-16T11:56:08;99184.28;;;26.55;49.18
71151;BME280;59071;42.138;24.768;2023-05-16T11:58:34;99184.28;;;25.93;48.91
71151;BME280;59071;42.138;24.768;2023-05-16T12:01:02;99178.53;;;26.12;48.92
71151;BME280;59071;42.138;24.768;2023-05-16T12:03:28;99178.63;;;25.90;48.97
71151;BME280;59071;42.138;24.768;2023-05-16T12:05:57;99174.81;;;26.43;48.52
71151;BME280;59071;42.138;24.768;2023-05-16T12:08:23;99163.91;;;26.17;49.07
71151;BME280;59071;42.138;24.768;2023-05-16T12:10:51;99160.97;;;26.57;46.93
71151;BME280;59071;42.138;24.768;2023-05-16T12:13:17;99174.34;;;26.32;48.04
71151;BME280;59071;42.138;24.768;2023-05-16T12:15:43;99192.34;;;25.59;49.39
71151;BME280;59071;42.138;24.768;2023-05-16T12:18:08;99187.56;;;25.64;50.00
71151;BME280;59071;42.138;24.768;2023-05-16T12:20:34;99190.06;;;26.27;48.49
71151;BME280;59071;42.138;24.768;2023-05-16T12:22:59;99192.75;;;26.79;46.30
71151;BME280;59071;42.138;24.768;2023-05-16T12:27:51;99182.78;;;26.83;46.47
71151;BME280;59071;42.138;24.768;2023-05-16T12:30:17;99188.41;;;26.78;46.28
71151;BME280;59071;42.138;24.768;2023-05-16T12:32:43;99182.00;;;26.74;45.84
71151;BME280;59071;42.138;24.768;2023-05-16T12:35:09;99183.53;;;27.01;45.88
71151;BME280;59071;42.138;24.768;2023-05-16T12:37:35;99178.38;;;27.47;45.65
71151;BME280;59071;42.138;24.768;2023-05-16T12:40:01;99175.84;;;27.93;45.23
71151;BME280;59071;42.138;24.768;2023-05-16T12:42:28;99158.34;;;27.64;43.80
71151;BME280;59071;42.138;24.768;2023-05-16T12:44:56;99145.28;;;27.10;44.60
71151;BME280;59071;42.138;24.768;2023-05-16T12:47:22;99136.47;;;27.43;44.14
71151;BME280;59071;42.138;24.768;2023-05-16T12:49:47;99141.69;;;27.18;45.30
71151;BME280;59071;42.138;24.768;2023-05-16T12:52:18;99139.38;;;27.38;45.19
71151;BME280;59071;42.138;24.768;2023-05-16T12:54:44;99138.94;;;27.57;44.22
71151;BME280;59071;42.138;24.768;2023-05-16T12:57:10;99125.25;;;26.97;46.37
71151;BME280;59071;42.138;24.768;2023-05-16T12:59:35;99114.06;;;27.20;45.01
71151;BME280;59071;42.138;24.768;2023-05-16T13:02:01;99105.78;;;26.69;46.34
71151;BME280;59071;42.138;24.768;2023-05-16T13:04:26;99106.53;;;26.78;46.53
71151;BME280;59071;42.138;24.768;2023-05-16T13:06:51;99117.34;;;27.13;45.01
71151;BME280;59071;42.138;24.768;2023-05-16T13:09:17;99108.38;;;27.04;45.40
71151;BME280;59071;42.138;24.768;2023-05-16T13:11:43;99117.44;;;27.25;44.99